createdAt,value
2018-12-27T00:00:46.887Z,15.40
2018-12-27T00:01:46.899Z,15.20
2018-12-27T00:02:54.640Z,15.10
2018-12-27T00:03:46.920Z,15.60
2018-12-27T00:04:46.930Z,15.30
2018-12-27T00:05:46.937Z,16.40
2018-12-27T00:06:46.958Z,15.30
2018-12-27T00:07:46.958Z,15.00
2018-12-27T00:08:46.968Z,15.20
2018-12-27T00:09:46.974Z,14.90
2018-12-27T00:10:46.990Z,15.20
2018-12-27T00:11:46.996Z,14.80
2018-12-27T00:12:47.005Z,15.60
2018-12-27T00:13:47.015Z,15.60
2018-12-27T00:14:47.026Z,15.20
2018-12-27T00:15:47.036Z,16.20
2018-12-27T00:16:47.047Z,16.10
2018-12-27T00:17:47.054Z,14.80
2018-12-27T00:18:47.065Z,15.20
2018-12-27T00:19:47.078Z,14.10
2018-12-27T00:20:47.086Z,15.00
2018-12-27T00:21:47.098Z,15.40
2018-12-27T00:22:47.108Z,15.00
2018-12-27T00:23:47.116Z,15.00
2018-12-27T00:24:47.454Z,15.50
2018-12-27T00:25:47.142Z,15.10
2018-12-27T00:26:47.149Z,15.30
2018-12-27T00:27:47.155Z,15.00
2018-12-27T00:28:47.170Z,15.20
2018-12-27T00:29:47.177Z,15.70
2018-12-27T00:30:47.184Z,14.90
2018-12-27T00:31:47.400Z,15.40
2018-12-27T00:32:47.208Z,14.90
2018-12-27T00:33:47.214Z,15.20
2018-12-27T00:34:47.227Z,14.90
2018-12-27T00:35:47.237Z,15.80
2018-12-27T00:36:47.256Z,15.70
2018-12-27T00:37:47.267Z,15.60
2018-12-27T00:38:47.264Z,14.90
2018-12-27T00:39:47.277Z,16.20
2018-12-27T00:40:47.285Z,15.90
2018-12-27T00:41:47.298Z,15.60
2018-12-27T00:42:47.313Z,15.90
2018-12-27T00:43:47.315Z,15.60
2018-12-27T00:44:47.326Z,15.60
2018-12-27T00:45:47.338Z,16.50
2018-12-27T00:46:47.348Z,15.60
2018-12-27T00:47:47.355Z,16.00
2018-12-27T00:48:47.365Z,15.90
2018-12-27T00:49:47.372Z,15.50
2018-12-27T00:50:47.384Z,14.90
2018-12-27T00:51:47.392Z,15.60
2018-12-27T00:52:47.403Z,14.40
2018-12-27T00:53:47.422Z,14.80
2018-12-27T00:54:47.438Z,15.00
2018-12-27T00:55:47.542Z,15.50
2018-12-27T00:56:47.445Z,14.60
2018-12-27T00:57:47.455Z,14.70
2018-12-27T00:58:47.467Z,15.10
2018-12-27T00:59:47.474Z,14.90
2018-12-27T01:00:47.486Z,15.10
2018-12-27T01:01:47.498Z,15.30
2018-12-27T01:02:47.604Z,14.70
2018-12-27T01:03:47.515Z,15.40
2018-12-27T01:04:47.528Z,15.30
2018-12-27T01:05:47.533Z,14.90
2018-12-27T01:06:47.544Z,14.40
2018-12-27T01:07:47.558Z,15.30
2018-12-27T01:08:47.562Z,15.30
2018-12-27T01:09:47.578Z,15.90
2018-12-27T01:10:47.587Z,15.60
2018-12-27T01:11:47.593Z,15.10
2018-12-27T01:12:47.686Z,15.30
2018-12-27T01:13:47.713Z,14.40
2018-12-27T01:14:47.622Z,14.60
2018-12-27T01:15:47.632Z,15.10
2018-12-27T01:16:47.648Z,15.80
2018-12-27T01:17:47.652Z,14.90
2018-12-27T01:18:47.662Z,14.70
2018-12-27T01:19:47.682Z,15.60
2018-12-27T01:20:47.687Z,15.30
2018-12-27T01:21:47.691Z,15.80
2018-12-27T01:22:47.708Z,15.40
2018-12-27T01:23:47.712Z,15.80
2018-12-27T01:24:47.729Z,15.00
2018-12-27T01:25:47.783Z,15.20
2018-12-27T01:26:47.749Z,15.50
2018-12-27T01:27:47.754Z,16.10
2018-12-27T01:28:47.764Z,15.60
2018-12-27T01:29:47.775Z,15.60
2018-12-27T01:30:47.782Z,16.00
2018-12-27T01:31:50.730Z,15.60
2018-12-27T01:32:47.802Z,16.10
2018-12-27T01:33:47.809Z,15.80
2018-12-27T01:34:47.826Z,15.60
2018-12-27T01:35:47.841Z,15.70
2018-12-27T01:36:47.844Z,15.90
2018-12-27T01:37:47.853Z,15.60
2018-12-27T01:38:47.865Z,15.10
2018-12-27T01:39:47.872Z,14.90
2018-12-27T01:40:47.883Z,14.70
2018-12-27T01:41:47.890Z,15.60
2018-12-27T01:42:47.901Z,15.80
2018-12-27T01:43:47.912Z,15.40
2018-12-27T01:44:47.920Z,16.10
2018-12-27T01:45:47.929Z,15.30
2018-12-27T01:46:47.936Z,15.70
2018-12-27T01:47:47.953Z,14.80
2018-12-27T01:48:47.959Z,15.30
2018-12-27T01:49:47.972Z,14.90
2018-12-27T01:50:47.981Z,14.70
2018-12-27T01:51:47.992Z,15.80
2018-12-27T01:52:47.995Z,15.60
2018-12-27T01:53:48.015Z,14.60
2018-12-27T01:54:48.025Z,15.10
2018-12-27T01:55:48.036Z,15.60
2018-12-27T01:56:48.038Z,14.90
2018-12-27T01:57:48.048Z,15.40
2018-12-27T01:58:48.066Z,14.80
2018-12-27T01:59:48.068Z,14.80
2018-12-27T02:00:48.074Z,15.20
2018-12-27T02:01:48.085Z,15.10
2018-12-27T02:02:48.095Z,15.20
2018-12-27T02:03:48.109Z,15.60
2018-12-27T02:04:48.117Z,15.40
2018-12-27T02:05:48.126Z,14.50
2018-12-27T02:06:48.133Z,15.10
2018-12-27T02:07:48.149Z,15.00
2018-12-27T02:08:48.157Z,15.10
2018-12-27T02:09:48.160Z,15.50
2018-12-27T02:10:48.173Z,15.10
2018-12-27T02:11:48.184Z,15.40
2018-12-27T02:12:48.195Z,15.70
2018-12-27T02:13:48.200Z,16.00
2018-12-27T02:14:48.214Z,14.90
2018-12-27T02:15:48.223Z,17.00
2018-12-27T02:16:48.230Z,15.60
2018-12-27T02:17:48.240Z,15.70
2018-12-27T02:18:48.249Z,15.80
2018-12-27T02:19:48.258Z,16.50
2018-12-27T02:20:48.278Z,15.40
2018-12-27T02:21:48.281Z,16.40
2018-12-27T02:22:48.295Z,15.90
2018-12-27T02:23:48.301Z,15.40
2018-12-27T02:24:48.318Z,16.10
2018-12-27T02:25:48.320Z,15.10
2018-12-27T02:26:48.329Z,15.80
2018-12-27T02:27:48.336Z,15.90
2018-12-27T02:28:48.347Z,16.00
2018-12-27T02:29:48.363Z,16.50
2018-12-27T02:30:48.366Z,16.10
2018-12-27T02:31:48.378Z,15.90
2018-12-27T02:32:48.389Z,15.90
2018-12-27T02:33:48.398Z,15.40
2018-12-27T02:34:48.405Z,16.40
2018-12-27T02:35:48.415Z,15.20
2018-12-27T02:36:48.428Z,15.40
2018-12-27T02:37:48.434Z,15.80
2018-12-27T02:38:48.450Z,15.20
2018-12-27T02:39:48.462Z,15.50
2018-12-27T02:40:48.470Z,15.10
2018-12-27T02:41:48.475Z,15.70
2018-12-27T02:42:48.483Z,15.90
2018-12-27T02:43:48.490Z,16.20
2018-12-27T02:44:48.505Z,15.40
2018-12-27T02:45:48.581Z,15.90
2018-12-27T02:46:48.628Z,16.10
2018-12-27T02:47:48.532Z,14.80
2018-12-27T02:48:48.547Z,15.20
2018-12-27T02:49:48.554Z,15.20
2018-12-27T02:50:48.563Z,14.90
2018-12-27T02:51:48.577Z,15.10
2018-12-27T02:52:48.582Z,14.80
2018-12-27T02:53:48.601Z,14.40
2018-12-27T02:54:48.601Z,15.80
2018-12-27T02:55:48.627Z,14.90
2018-12-27T02:56:48.623Z,15.00
2018-12-27T02:57:48.627Z,14.50
2018-12-27T02:58:48.639Z,15.40
2018-12-27T02:59:48.662Z,14.20
2018-12-27T03:00:48.664Z,15.00
2018-12-27T03:01:48.667Z,14.30
2018-12-27T03:02:48.676Z,14.60
2018-12-27T03:03:48.689Z,14.50
2018-12-27T03:04:48.694Z,14.20
2018-12-27T03:05:48.704Z,14.50
2018-12-27T03:06:48.717Z,15.00
2018-12-27T03:07:48.731Z,15.10
2018-12-27T03:08:48.735Z,14.50
2018-12-27T03:09:48.891Z,14.70
2018-12-27T03:10:48.845Z,14.50
2018-12-27T03:11:48.773Z,14.50
2018-12-27T03:12:48.772Z,15.00
2018-12-27T03:13:48.782Z,14.40
2018-12-27T03:14:48.806Z,14.40
2018-12-27T03:15:48.802Z,14.60
2018-12-27T03:16:48.817Z,14.30
2018-12-27T03:17:48.822Z,13.80
2018-12-27T03:18:48.829Z,14.30
2018-12-27T03:19:48.850Z,13.90
2018-12-27T03:20:48.853Z,14.60
2018-12-27T03:21:48.863Z,14.40
2018-12-27T03:22:48.871Z,14.10
2018-12-27T03:23:48.881Z,14.10
2018-12-27T03:24:48.901Z,14.30
2018-12-27T03:25:48.905Z,14.50
2018-12-27T03:26:48.908Z,14.00
2018-12-27T03:27:48.923Z,14.20
2018-12-27T03:28:48.935Z,14.40
2018-12-27T03:29:48.935Z,13.70
2018-12-27T03:30:48.948Z,14.50
2018-12-27T03:31:48.957Z,13.80
2018-12-27T03:32:48.966Z,14.40
2018-12-27T03:33:52.736Z,14.50
2018-12-27T03:34:48.982Z,14.10
2018-12-27T03:35:48.993Z,14.40
2018-12-27T03:36:49.002Z,13.90
2018-12-27T03:37:49.034Z,13.30
2018-12-27T03:38:49.056Z,14.50
2018-12-27T03:39:49.032Z,14.10
2018-12-27T03:40:49.051Z,14.10
2018-12-27T03:41:49.054Z,14.00
2018-12-27T03:42:49.061Z,13.60
2018-12-27T03:43:49.068Z,13.30
2018-12-27T03:44:49.079Z,14.00
2018-12-27T03:45:49.187Z,13.40
2018-12-27T03:46:49.101Z,14.20
2018-12-27T03:47:49.102Z,13.60
2018-12-27T03:48:49.115Z,13.30
2018-12-27T03:49:49.124Z,14.10
2018-12-27T03:50:49.133Z,13.70
2018-12-27T03:51:49.142Z,13.40
2018-12-27T03:52:49.157Z,13.20
2018-12-27T03:53:49.166Z,14.20
2018-12-27T03:54:49.181Z,12.40
2018-12-27T03:55:49.207Z,14.00
2018-12-27T03:56:49.194Z,13.10
2018-12-27T03:57:49.209Z,13.00
2018-12-27T03:58:49.215Z,13.20
2018-12-27T03:59:49.221Z,13.70
2018-12-27T04:00:49.230Z,13.00
2018-12-27T04:01:49.242Z,14.00
2018-12-27T04:02:49.300Z,13.90
2018-12-27T04:03:49.307Z,13.10
2018-12-27T04:04:49.269Z,13.50
2018-12-27T04:05:49.369Z,13.80
2018-12-27T04:06:49.284Z,13.70
2018-12-27T04:07:49.596Z,13.50
2018-12-27T04:08:49.303Z,13.10
2018-12-27T04:09:49.323Z,12.90
2018-12-27T04:10:49.331Z,13.70
2018-12-27T04:11:49.330Z,13.00
2018-12-27T04:12:49.342Z,14.00
2018-12-27T04:13:49.348Z,12.50
2018-12-27T04:14:49.361Z,13.10
2018-12-27T04:15:49.369Z,13.70
2018-12-27T04:16:49.381Z,12.60
2018-12-27T04:17:49.398Z,13.50
2018-12-27T04:18:49.401Z,13.80
2018-12-27T04:19:49.409Z,13.30
2018-12-27T04:20:49.422Z,14.00
2018-12-27T04:21:49.442Z,13.00
2018-12-27T04:22:49.438Z,12.90
2018-12-27T04:23:49.446Z,12.90
2018-12-27T04:24:49.453Z,12.80
2018-12-27T04:25:49.465Z,12.80
2018-12-27T04:26:49.482Z,13.00
2018-12-27T04:27:49.483Z,13.60
2018-12-27T04:28:49.495Z,12.90
2018-12-27T04:29:49.506Z,12.30
2018-12-27T04:30:49.511Z,13.00
2018-12-27T04:31:49.519Z,13.40
2018-12-27T04:32:49.532Z,12.90
2018-12-27T04:33:49.546Z,12.70
2018-12-27T04:34:49.551Z,12.60
2018-12-27T04:35:49.559Z,13.30
2018-12-27T04:36:49.637Z,13.10
2018-12-27T04:37:49.594Z,12.30
2018-12-27T04:38:49.590Z,12.80
2018-12-27T04:39:49.598Z,13.30
2018-12-27T04:40:49.612Z,13.20
2018-12-27T04:41:49.621Z,13.20
2018-12-27T04:42:49.623Z,13.80
2018-12-27T04:43:49.644Z,13.90
2018-12-27T04:44:49.647Z,12.90
2018-12-27T04:45:49.657Z,13.20
2018-12-27T04:46:49.662Z,13.40
2018-12-27T04:47:49.676Z,13.60
2018-12-27T04:48:49.681Z,13.50
2018-12-27T04:49:49.687Z,13.30
2018-12-27T04:50:49.696Z,13.60
2018-12-27T04:51:49.707Z,13.50
2018-12-27T04:52:49.730Z,13.80
2018-12-27T04:53:49.731Z,13.20
2018-12-27T04:54:49.747Z,13.70
2018-12-27T04:55:49.752Z,13.80
2018-12-27T04:56:49.857Z,13.30
2018-12-27T04:57:49.774Z,13.20
2018-12-27T04:58:49.774Z,14.10
2018-12-27T04:59:49.789Z,13.40
2018-12-27T05:00:49.791Z,13.30
2018-12-27T05:01:49.803Z,13.90
2018-12-27T05:02:49.815Z,14.00
2018-12-27T05:03:49.829Z,13.90
2018-12-27T05:04:49.831Z,13.40
2018-12-27T05:05:49.841Z,13.80
2018-12-27T05:06:49.851Z,13.90
2018-12-27T05:07:49.858Z,14.30
2018-12-27T05:08:49.880Z,14.60
2018-12-27T05:09:49.876Z,14.30
2018-12-27T05:10:49.899Z,13.80
2018-12-27T05:11:49.898Z,13.80
2018-12-27T05:12:49.903Z,13.40
2018-12-27T05:13:49.920Z,13.80
2018-12-27T05:14:50.038Z,14.80
2018-12-27T05:15:49.930Z,13.40
2018-12-27T05:16:49.939Z,14.20
2018-12-27T05:17:49.956Z,14.10
2018-12-27T05:18:49.956Z,14.40
2018-12-27T05:19:49.968Z,13.80
2018-12-27T05:20:49.979Z,14.40
2018-12-27T05:21:49.986Z,14.00
2018-12-27T05:22:49.995Z,14.20
2018-12-27T05:23:50.010Z,13.30
2018-12-27T05:24:50.019Z,13.90
2018-12-27T05:25:50.027Z,13.80
2018-12-27T05:26:50.031Z,12.80
2018-12-27T05:27:50.045Z,13.70
2018-12-27T05:28:50.071Z,13.50
2018-12-27T05:29:50.063Z,12.70
2018-12-27T05:30:50.068Z,13.30
2018-12-27T05:31:51.697Z,13.10
2018-12-27T05:32:50.093Z,14.10
2018-12-27T05:33:50.096Z,14.80
2018-12-27T05:34:50.111Z,13.50
2018-12-27T05:35:50.123Z,13.50
2018-12-27T05:36:50.127Z,14.40
2018-12-27T05:37:50.141Z,13.70
2018-12-27T05:38:50.158Z,13.60
2018-12-27T05:39:50.155Z,13.20
2018-12-27T05:40:50.165Z,13.90
2018-12-27T05:41:50.176Z,13.80
2018-12-27T05:42:50.198Z,13.70
2018-12-27T05:43:50.194Z,13.10
2018-12-27T05:44:50.207Z,13.80
2018-12-27T05:45:50.213Z,13.10
2018-12-27T05:46:50.221Z,13.60
2018-12-27T05:47:50.228Z,13.40
2018-12-27T05:48:50.240Z,13.50
2018-12-27T05:49:50.249Z,13.50
2018-12-27T05:50:50.259Z,13.70
2018-12-27T05:51:50.279Z,13.90
2018-12-27T05:52:50.275Z,13.10
2018-12-27T05:53:50.307Z,13.90
2018-12-27T05:54:50.293Z,14.70
2018-12-27T05:55:50.306Z,14.00
2018-12-27T05:56:50.315Z,14.00
2018-12-27T05:57:50.323Z,14.00
2018-12-27T05:58:50.332Z,14.00
2018-12-27T05:59:50.344Z,14.30
2018-12-27T06:00:50.351Z,13.60
2018-12-27T06:01:50.375Z,13.90
2018-12-27T06:02:50.371Z,14.40
2018-12-27T06:03:50.381Z,13.70
2018-12-27T06:04:50.385Z,14.40
2018-12-27T06:05:50.395Z,14.60
2018-12-27T06:06:50.408Z,14.10
2018-12-27T06:07:50.417Z,14.50
2018-12-27T06:08:50.422Z,14.40
2018-12-27T06:09:50.432Z,13.80
2018-12-27T06:10:50.536Z,14.30
2018-12-27T06:11:50.452Z,14.00
2018-12-27T06:12:50.466Z,13.80
2018-12-27T06:13:50.473Z,14.10
2018-12-27T06:14:50.485Z,13.40
2018-12-27T06:15:50.485Z,14.00
2018-12-27T06:16:50.490Z,14.00
2018-12-27T06:17:50.498Z,13.30
2018-12-27T06:18:50.512Z,14.70
2018-12-27T06:19:50.522Z,13.80
2018-12-27T06:20:50.528Z,13.80
2018-12-27T06:21:50.537Z,14.10
2018-12-27T06:22:50.547Z,13.20
2018-12-27T06:23:50.556Z,14.50
2018-12-27T06:24:50.578Z,14.50
2018-12-27T06:25:50.573Z,14.50
2018-12-27T06:26:50.582Z,14.10
2018-12-27T06:27:50.594Z,14.40
2018-12-27T06:28:50.605Z,14.30
2018-12-27T06:29:50.609Z,14.00
2018-12-27T06:30:50.622Z,14.30
2018-12-27T06:31:50.637Z,14.20
2018-12-27T06:32:50.636Z,14.10
2018-12-27T06:33:50.953Z,13.80
2018-12-27T06:34:50.658Z,14.20
2018-12-27T06:35:50.665Z,13.10
2018-12-27T06:36:50.681Z,13.80
2018-12-27T06:37:50.686Z,14.90
2018-12-27T06:38:50.693Z,14.40
2018-12-27T06:39:50.702Z,14.00
2018-12-27T06:40:50.720Z,13.40
2018-12-27T06:41:50.747Z,13.80
2018-12-27T06:42:50.739Z,14.20
2018-12-27T06:43:50.738Z,13.30
2018-12-27T06:44:50.751Z,14.90
2018-12-27T06:45:50.758Z,13.50
2018-12-27T06:46:50.773Z,13.40
2018-12-27T06:47:50.780Z,13.90
2018-12-27T06:48:50.787Z,13.30
2018-12-27T06:49:50.798Z,14.40
2018-12-27T06:50:50.806Z,13.00
2018-12-27T06:51:50.812Z,14.50
2018-12-27T06:52:50.829Z,13.50
2018-12-27T06:53:50.831Z,13.80
2018-12-27T06:54:50.841Z,13.20
2018-12-27T06:55:50.852Z,14.20
2018-12-27T06:56:50.859Z,14.30
2018-12-27T06:57:50.878Z,13.40
2018-12-27T06:58:50.880Z,13.70
2018-12-27T06:59:50.887Z,14.10
2018-12-27T07:00:50.896Z,13.40
2018-12-27T07:01:50.917Z,12.90
2018-12-27T07:02:50.917Z,12.70
2018-12-27T07:03:50.926Z,13.10
2018-12-27T07:04:50.946Z,12.80
2018-12-27T07:05:50.946Z,12.90
2018-12-27T07:06:50.953Z,13.70
2018-12-27T07:07:50.960Z,13.60
2018-12-27T07:08:50.972Z,13.10
2018-12-27T07:09:50.985Z,13.20
2018-12-27T07:10:50.998Z,13.30
2018-12-27T07:11:50.996Z,12.90
2018-12-27T07:12:51.007Z,13.30
2018-12-27T07:13:51.017Z,13.00
2018-12-27T07:14:51.025Z,13.00
2018-12-27T07:15:51.037Z,12.70
2018-12-27T07:16:51.068Z,12.70
2018-12-27T07:17:51.055Z,13.10
2018-12-27T07:18:51.064Z,12.90
2018-12-27T07:19:51.071Z,13.20
2018-12-27T07:20:51.085Z,13.50
2018-12-27T07:21:51.100Z,13.00
2018-12-27T07:22:51.097Z,13.20
2018-12-27T07:23:51.105Z,13.40
2018-12-27T07:24:51.119Z,12.70
2018-12-27T07:25:51.125Z,12.90
2018-12-27T07:26:51.137Z,13.70
2018-12-27T07:27:51.145Z,13.20
2018-12-27T07:28:51.153Z,13.70
2018-12-27T07:29:51.181Z,13.50
2018-12-27T07:30:51.173Z,13.30
2018-12-27T07:31:51.182Z,12.70
2018-12-27T07:32:51.189Z,13.10
2018-12-27T07:33:51.200Z,12.50
2018-12-27T07:34:56.523Z,13.40
2018-12-27T07:35:51.216Z,14.00
2018-12-27T07:36:51.227Z,13.30
2018-12-27T07:37:51.234Z,13.00
2018-12-27T07:38:51.242Z,13.00
2018-12-27T07:39:51.259Z,13.30
2018-12-27T07:40:51.270Z,13.40
2018-12-27T07:41:51.274Z,13.30
2018-12-27T07:42:51.282Z,13.40
2018-12-27T07:43:51.294Z,13.50
2018-12-27T07:44:51.300Z,12.50
2018-12-27T07:45:51.306Z,13.50
2018-12-27T07:46:51.320Z,13.50
2018-12-27T07:47:51.328Z,13.40
2018-12-27T07:48:51.343Z,12.90
2018-12-27T07:49:51.343Z,13.30
2018-12-27T07:50:51.355Z,13.40
2018-12-27T07:51:51.363Z,13.50
2018-12-27T07:52:51.372Z,13.70
2018-12-27T07:53:51.384Z,13.40
2018-12-27T07:54:51.394Z,13.20
2018-12-27T07:55:51.404Z,13.10
2018-12-27T07:56:51.413Z,13.00
2018-12-27T07:57:51.421Z,13.50
2018-12-27T07:58:51.430Z,13.20
2018-12-27T07:59:51.443Z,12.90
2018-12-27T08:00:51.449Z,13.10
2018-12-27T08:01:51.457Z,13.20
2018-12-27T08:02:51.480Z,12.90
2018-12-27T08:03:51.786Z,13.60
2018-12-27T08:04:51.487Z,13.30
2018-12-27T08:05:51.497Z,12.90
2018-12-27T08:06:51.504Z,14.20
2018-12-27T08:07:51.515Z,14.00
2018-12-27T08:08:51.525Z,12.90
2018-12-27T08:09:51.530Z,14.70
2018-12-27T08:10:51.555Z,15.60
2018-12-27T08:11:51.557Z,13.60
2018-12-27T08:12:51.567Z,13.20
2018-12-27T08:13:51.568Z,13.30
2018-12-27T08:14:51.582Z,13.20
2018-12-27T08:15:51.593Z,13.10
2018-12-27T08:16:51.603Z,13.00
2018-12-27T08:17:51.610Z,13.90
2018-12-27T08:18:51.621Z,12.80
2018-12-27T08:19:51.628Z,13.60
2018-12-27T08:20:51.634Z,13.20
2018-12-27T08:21:51.648Z,13.20
2018-12-27T08:22:51.657Z,13.20
2018-12-27T08:23:51.666Z,13.60
2018-12-27T08:24:51.679Z,11.90
2018-12-27T08:25:51.698Z,13.40
2018-12-27T08:26:51.690Z,13.00
2018-12-27T08:27:51.703Z,13.40
2018-12-27T08:28:51.710Z,13.50
2018-12-27T08:29:51.722Z,12.80
2018-12-27T08:30:51.729Z,13.00
2018-12-27T08:31:51.840Z,13.10
2018-12-27T08:32:51.754Z,12.70
2018-12-27T08:33:51.768Z,13.20
2018-12-27T08:34:51.766Z,14.00
2018-12-27T08:35:51.775Z,12.90
2018-12-27T08:36:51.787Z,12.80
2018-12-27T08:37:51.860Z,13.00
2018-12-27T08:38:51.803Z,13.60
2018-12-27T08:39:51.826Z,12.90
2018-12-27T08:40:51.864Z,14.10
2018-12-27T08:41:51.839Z,12.80
2018-12-27T08:42:51.853Z,13.20
2018-12-27T08:43:51.854Z,12.60
2018-12-27T08:44:51.863Z,13.40
2018-12-27T08:45:51.894Z,13.60
2018-12-27T08:46:51.914Z,12.70
2018-12-27T08:47:51.889Z,12.60
2018-12-27T08:48:51.899Z,13.00
2018-12-27T08:49:51.910Z,13.20
2018-12-27T08:50:51.931Z,12.70
2018-12-27T08:51:51.927Z,13.10
2018-12-27T08:52:51.950Z,13.20
2018-12-27T08:53:51.947Z,12.40
2018-12-27T08:54:51.982Z,13.10
2018-12-27T08:55:51.963Z,12.90
2018-12-27T08:56:51.975Z,13.20
2018-12-27T08:57:51.986Z,12.70
2018-12-27T08:58:51.997Z,13.30
2018-12-27T08:59:52.008Z,12.90
2018-12-27T09:00:52.033Z,13.10
2018-12-27T09:01:52.028Z,12.80
2018-12-27T09:02:52.042Z,13.40
2018-12-27T09:03:52.044Z,13.50
2018-12-27T09:04:52.048Z,13.40
2018-12-27T09:05:52.063Z,12.90
2018-12-27T09:06:52.067Z,12.80
2018-12-27T09:07:52.078Z,13.40
2018-12-27T09:08:52.087Z,13.60
2018-12-27T09:09:52.098Z,13.50
2018-12-27T09:10:52.113Z,12.60
2018-12-27T09:11:52.126Z,13.00
2018-12-27T09:12:52.133Z,12.30
2018-12-27T09:13:52.132Z,13.50
2018-12-27T09:14:52.144Z,13.40
2018-12-27T09:15:52.155Z,14.30
2018-12-27T09:16:52.167Z,13.80
2018-12-27T09:17:52.237Z,14.30
2018-12-27T09:18:52.187Z,14.00
2018-12-27T09:19:52.195Z,14.90
2018-12-27T09:20:52.212Z,14.30
2018-12-27T09:21:52.212Z,14.90
2018-12-27T09:22:52.223Z,15.10
2018-12-27T09:23:52.231Z,14.20
2018-12-27T09:24:52.238Z,13.80
2018-12-27T09:25:52.248Z,14.40
2018-12-27T09:26:52.262Z,15.00
2018-12-27T09:27:52.266Z,15.10
2018-12-27T09:28:52.275Z,15.00
2018-12-27T09:29:52.290Z,15.00
2018-12-27T09:30:52.307Z,14.20
2018-12-27T09:31:52.304Z,14.20
2018-12-27T09:32:52.316Z,14.60
2018-12-27T09:33:52.328Z,14.70
2018-12-27T09:34:52.335Z,15.40
2018-12-27T09:35:52.346Z,15.10
2018-12-27T09:36:52.353Z,14.60
2018-12-27T09:37:52.361Z,15.40
2018-12-27T09:38:52.375Z,14.30
2018-12-27T09:39:52.388Z,14.70
2018-12-27T09:40:52.400Z,14.90
2018-12-27T09:41:52.405Z,14.20
2018-12-27T09:42:52.413Z,14.60
2018-12-27T09:43:52.425Z,14.80
2018-12-27T09:44:52.433Z,14.70
2018-12-27T09:45:52.438Z,14.40
2018-12-27T09:46:52.448Z,15.30
2018-12-27T09:47:52.465Z,14.70
2018-12-27T09:48:52.489Z,15.20
2018-12-27T09:49:52.476Z,14.60
2018-12-27T09:50:52.487Z,14.80
2018-12-27T09:51:52.506Z,15.30
2018-12-27T09:52:52.557Z,14.60
2018-12-27T09:53:52.517Z,14.10
2018-12-27T09:54:52.527Z,14.10
2018-12-27T09:55:52.538Z,13.10
2018-12-27T09:56:52.551Z,13.80
2018-12-27T09:57:52.725Z,13.40
2018-12-27T09:58:52.575Z,13.40
2018-12-27T09:59:52.693Z,13.30
2018-12-27T10:00:52.583Z,13.80
2018-12-27T10:01:52.592Z,12.90
2018-12-27T10:02:52.601Z,13.30
2018-12-27T10:03:52.617Z,13.80
2018-12-27T10:04:52.620Z,13.80
2018-12-27T10:05:52.634Z,13.80
2018-12-27T10:06:52.653Z,13.60
2018-12-27T10:07:57.497Z,13.60
2018-12-27T10:08:52.661Z,12.70
2018-12-27T10:09:52.674Z,13.20
2018-12-27T10:10:52.679Z,13.00
2018-12-27T10:11:52.694Z,13.30
2018-12-27T10:12:52.706Z,13.50
2018-12-27T10:13:52.711Z,12.90
2018-12-27T10:14:52.722Z,12.50
2018-12-27T10:15:52.729Z,12.40
2018-12-27T10:16:52.742Z,12.60
2018-12-27T10:17:52.755Z,13.40
2018-12-27T10:18:52.776Z,13.80
2018-12-27T10:19:52.770Z,12.40
2018-12-27T10:20:52.780Z,12.50
2018-12-27T10:21:52.792Z,12.10
2018-12-27T10:22:52.825Z,12.00
2018-12-27T10:23:52.842Z,12.20
2018-12-27T10:24:52.820Z,10.70
2018-12-27T10:25:52.835Z,11.50
2018-12-27T10:26:52.845Z,11.40
2018-12-27T10:27:52.850Z,12.00
2018-12-27T10:28:52.860Z,11.00
2018-12-27T10:29:52.883Z,11.10
2018-12-27T10:30:59.623Z,10.60
2018-12-27T10:31:52.889Z,10.70
2018-12-27T10:32:53.101Z,10.80
2018-12-27T10:33:52.910Z,10.40
2018-12-27T10:34:52.917Z,9.60
2018-12-27T10:35:52.931Z,11.00
2018-12-27T10:36:52.941Z,10.60
2018-12-27T10:37:52.948Z,9.80
2018-12-27T10:38:52.962Z,10.90
2018-12-27T10:39:52.975Z,10.70
2018-12-27T10:40:52.980Z,10.40
2018-12-27T10:41:53.494Z,10.60
2018-12-27T10:42:53.002Z,10.30
2018-12-27T10:43:53.014Z,9.60
2018-12-27T10:44:53.023Z,9.90
2018-12-27T10:45:53.030Z,9.60
2018-12-27T10:46:53.045Z,10.10
2018-12-27T10:47:53.054Z,10.20
2018-12-27T10:48:53.063Z,9.60
2018-12-27T10:49:53.078Z,10.60
2018-12-27T10:50:53.109Z,10.70
2018-12-27T10:51:53.095Z,9.50
2018-12-27T10:52:53.105Z,9.70
2018-12-27T10:53:53.117Z,10.40
2018-12-27T10:54:53.131Z,9.60
2018-12-27T10:55:53.141Z,9.80
2018-12-27T10:56:53.146Z,9.60
2018-12-27T10:57:53.161Z,10.10
2018-12-27T10:59:53.205Z,10.40
2018-12-27T11:00:53.186Z,9.40
2018-12-27T11:01:53.221Z,9.50
2018-12-27T11:02:53.211Z,9.80
2018-12-27T11:03:53.223Z,9.50
2018-12-27T11:04:53.232Z,8.90
2018-12-27T11:05:53.243Z,9.50
2018-12-27T11:06:53.253Z,9.30
2018-12-27T11:07:53.267Z,9.10
2018-12-27T11:08:53.275Z,9.70
2018-12-27T11:09:53.282Z,9.30
2018-12-27T11:10:53.296Z,9.30
2018-12-27T11:11:53.303Z,9.30
2018-12-27T11:12:53.314Z,8.80
2018-12-27T11:13:53.325Z,8.90
2018-12-27T11:14:53.339Z,8.50
2018-12-27T11:15:53.355Z,8.40
2018-12-27T11:16:53.364Z,9.00
2018-12-27T11:17:53.372Z,8.30
2018-12-27T11:18:53.382Z,8.70
2018-12-27T11:19:53.394Z,8.70
2018-12-27T11:20:53.401Z,7.20
2018-12-27T11:21:53.415Z,8.10
2018-12-27T11:22:53.421Z,7.90
2018-12-27T11:23:53.448Z,7.60
2018-12-27T11:24:53.449Z,7.50
2018-12-27T11:25:53.459Z,7.10
2018-12-27T11:26:53.488Z,7.00
2018-12-27T11:27:53.485Z,7.30
2018-12-27T11:28:53.489Z,6.90
2018-12-27T11:29:53.496Z,7.20
2018-12-27T11:30:53.507Z,7.20
2018-12-27T11:31:53.520Z,7.10
2018-12-27T11:32:53.531Z,7.20
2018-12-27T11:33:53.548Z,6.80
2018-12-27T11:34:53.551Z,6.90
2018-12-27T11:35:55.959Z,7.50
2018-12-27T11:36:53.573Z,6.90
2018-12-27T11:37:53.580Z,7.20
2018-12-27T11:38:53.595Z,7.30
2018-12-27T11:39:53.601Z,6.90
2018-12-27T11:40:53.614Z,7.50
2018-12-27T11:41:53.624Z,7.50
2018-12-27T11:42:53.635Z,7.90
2018-12-27T11:43:53.650Z,7.20
2018-12-27T11:44:53.666Z,7.60
2018-12-27T11:45:53.669Z,7.70
2018-12-27T11:46:53.684Z,8.00
2018-12-27T11:47:53.686Z,7.70
2018-12-27T11:48:53.699Z,8.30
2018-12-27T11:49:53.712Z,8.30
2018-12-27T11:50:53.716Z,8.10
2018-12-27T11:51:53.728Z,7.80
2018-12-27T11:52:53.747Z,8.20
2018-12-27T11:53:53.754Z,8.00
2018-12-27T11:54:53.782Z,8.00
2018-12-27T11:55:53.769Z,8.10
2018-12-27T11:56:53.794Z,7.80
2018-12-27T11:57:53.817Z,7.50
2018-12-27T11:58:53.800Z,8.20
2018-12-27T11:59:53.813Z,8.30
2018-12-27T12:00:53.819Z,8.30
2018-12-27T12:01:53.832Z,7.80
2018-12-27T12:02:53.841Z,8.10
2018-12-27T12:03:53.854Z,7.80
2018-12-27T12:04:53.870Z,7.90
2018-12-27T12:05:54.181Z,7.70
2018-12-27T12:06:53.884Z,7.80
2018-12-27T12:07:53.893Z,8.40
2018-12-27T12:08:53.911Z,7.90
2018-12-27T12:09:53.914Z,7.90
2018-12-27T12:10:53.927Z,7.50
2018-12-27T12:11:53.942Z,7.50
2018-12-27T12:12:53.962Z,7.20
2018-12-27T12:13:53.961Z,7.60
2018-12-27T12:14:53.980Z,7.50
2018-12-27T12:15:53.984Z,8.20
2018-12-27T12:16:53.992Z,7.80
2018-12-27T12:17:54.000Z,7.20
2018-12-27T12:18:54.031Z,7.10
2018-12-27T12:19:54.025Z,7.10
2018-12-27T12:20:54.063Z,8.00
2018-12-27T12:21:54.049Z,7.60
2018-12-27T12:22:54.052Z,7.40
2018-12-27T12:23:54.069Z,7.80
2018-12-27T12:24:54.075Z,7.10
2018-12-27T12:25:55.228Z,8.00
2018-12-27T12:26:54.114Z,7.60
2018-12-27T12:27:54.111Z,7.90
2018-12-27T12:28:54.141Z,7.80
2018-12-27T12:29:54.135Z,7.30
2018-12-27T12:30:54.169Z,8.20
2018-12-27T12:31:54.149Z,7.80
2018-12-27T12:32:54.161Z,7.60
2018-12-27T12:33:54.172Z,7.30
2018-12-27T12:34:54.178Z,7.70
2018-12-27T12:35:54.196Z,7.50
2018-12-27T12:36:54.206Z,7.90
2018-12-27T12:37:54.220Z,7.90
2018-12-27T12:38:54.225Z,7.50
2018-12-27T12:39:54.241Z,7.40
2018-12-27T12:40:54.248Z,8.10
2018-12-27T12:41:54.259Z,7.90
2018-12-27T12:42:54.269Z,7.90
2018-12-27T12:43:54.278Z,7.40
2018-12-27T12:44:54.290Z,7.50
2018-12-27T12:45:54.309Z,8.00
2018-12-27T12:46:54.314Z,7.80
2018-12-27T12:47:54.327Z,7.80
2018-12-27T12:48:54.340Z,7.70
2018-12-27T12:49:54.347Z,7.90
2018-12-27T12:50:54.355Z,7.40
2018-12-27T12:51:54.364Z,7.80
2018-12-27T12:52:54.375Z,7.80
2018-12-27T12:53:54.385Z,7.10
2018-12-27T12:54:54.392Z,7.30
2018-12-27T12:55:54.410Z,6.70
2018-12-27T12:56:54.416Z,7.30
2018-12-27T12:57:54.426Z,7.30